Kezdőlap
METAR-TAF:

METAR-TAF

Repülőterek :

Monticello Regional Airport

Monticello, Iowa, Amerikai Egyesült Államok

földrajzi szélesség: 42-14N, földrajzi hosszúság: 091-10W, magasság: 259 m

Jelenlegi meteorológiai megfigyelések

A jelentés 21 perccel ezelõtt készült, 06:15 UTC
Kelet-délkeleti szél 17 kt széllökések: 23 kt
Hőmérséklet 12°C
Páratartalom 100%
Légköri nyomás 1005 hPa
Látótávolság: 16.1 km
Borult 800 lábon

METAR: KMXO 220615Z AUTO 12017G23KT 10SM OVC008 12/12 A2969 RMK AO2

Idő: 01:36 (06:36 UTC)


TAF: hiányzik

Meteorológiai megfigyelések és előrejelzések több, mint 4000 repülőtéren (METAR és TAF jelentéseket).

A térképen piros és sárga pontok jelzik az elérhető meteorológiai állomásokat.

Mozgassa az egeret a pont fölött, hogy megjelenjen az állomás neve.

Azután kattintson az időjárási megfigyelések és előrejelzések megtekintéséhez.

A térkép megváltoztatása: kattintson a fekete keresztel jelölt zöld gombra ráközelítéshez, a vonallal jelölt zöld gombra távolításhoz, vagy a zöld nyilakra a szomszédos térképek eléréséhez.


METAR-TAF: